Time;durP1;ratioP1;P1;durP2;ratioP2;P2;SDS_P1;SDS_P2;PMS_P1;PMS_P2;Temp;Humidity;BMP_temperature;BMP_pressure;BME280_temperature;BME280_humidity;BME280_pressure;Samples;Min_cycle;Max_cycle;Signal;HPM_P1;HPM_P2
2022/11/22 00:01:23;;;;;;;4.63;2.10;;;;;;;3.45;100.00;94330.34;4920722;29;20058;-83
2022/11/22 00:03:49;;;;;;;6.00;2.20;;;;;;;3.47;100.00;94333.59;4936800;29;20039;-82
2022/11/22 00:06:14;;;;;;;7.07;2.43;;;;;;;3.46;100.00;94332.78;4935601;28;20122;-82
2022/11/22 00:08:40;;;;;;;6.10;2.20;;;;;;;3.45;100.00;94323.34;4919987;29;20037;-83
2022/11/22 00:11:06;;;;;;;6.43;2.27;;;;;;;3.46;100.00;94317.19;4934158;29;20094;-82
2022/11/22 00:13:31;;;;;;;7.27;2.60;;;;;;;3.40;100.00;94310.03;4885660;29;20128;-83
2022/11/22 00:16:02;;;;;;;6.07;2.80;;;;;;;3.44;100.00;94305.34;4885625;28;20042;-83
2022/11/22 00:18:30;;;;;;;6.70;2.13;;;;;;;3.43;100.00;94304.53;4876556;29;20045;-84
2022/11/22 00:20:56;;;;;;;5.23;2.37;;;;;;;3.39;100.00;94298.03;4884332;28;20051;-83
2022/11/22 00:23:22;;;;;;;9.60;2.57;;;;;;;3.36;100.00;94303.56;4885970;29;20033;-83
2022/11/22 00:25:47;;;;;;;7.57;2.33;;;;;;;3.42;100.00;94302.06;4885617;29;20040;-82
2022/11/22 00:28:13;;;;;;;8.10;2.77;;;;;;;3.38;100.00;94296.38;4883935;28;20043;-83
2022/11/22 00:30:39;;;;;;;6.27;2.40;;;;;;;3.26;100.00;94298.50;4887014;29;21327;-82
2022/11/22 00:33:05;;;;;;;5.13;2.13;;;;;;;3.25;100.00;94296.91;4869348;28;20036;-83
2022/11/22 00:35:30;;;;;;;5.30;2.60;;;;;;;3.24;100.00;94307.44;4887619;29;20638;-83
2022/11/22 00:37:56;;;;;;;7.17;2.40;;;;;;;3.28;100.00;94324.31;4893787;28;20035;-83
2022/11/22 00:40:22;;;;;;;6.43;2.93;;;;;;;3.32;100.00;94333.44;4885595;29;20072;-83
2022/11/22 00:42:47;;;;;;;5.40;2.57;;;;;;;3.30;100.00;94332.78;4931364;29;20081;-83
2022/11/22 00:45:13;;;;;;;7.90;2.77;;;;;;;3.42;100.00;94326.28;4926615;29;20059;-82
2022/11/22 00:47:39;;;;;;;6.57;2.83;;;;;;;3.39;100.00;94324.03;4931737;29;20043;-83
2022/11/22 00:50:05;;;;;;;7.50;2.60;;;;;;;3.36;100.00;94319.13;4868305;28;20070;-81
2022/11/22 00:52:31;;;;;;;7.30;3.67;;;;;;;3.37;100.00;94309.56;4884073;29;20031;-83
2022/11/22 00:54:58;;;;;;;6.80;2.67;;;;;;;3.35;100.00;94309.69;4884874;28;20397;-84
2022/11/22 00:57:23;;;;;;;5.83;2.40;;;;;;;3.34;100.00;94300.28;4882408;29;20215;-81
2022/11/22 00:59:49;;;;;;;8.23;3.57;;;;;;;3.28;100.00;94308.72;4882784;29;20731;-83
2022/11/22 01:02:15;;;;;;;6.00;2.83;;;;;;;3.30;100.00;94299.81;4884949;28;20139;-83
2022/11/22 01:04:40;;;;;;;6.30;2.60;;;;;;;3.28;100.00;94304.34;4869523;29;20481;-83
2022/11/22 01:07:06;;;;;;;4.00;2.20;;;;;;;3.27;100.00;94304.50;4885390;28;20102;-83
2022/11/22 01:09:32;;;;;;;4.67;2.20;;;;;;;3.27;100.00;94314.91;4883603;29;20031;-83
2022/11/22 01:11:57;;;;;;;7.10;2.80;;;;;;;3.28;100.00;94311.31;4886021;28;20169;-83
2022/11/22 01:14:23;;;;;;;5.50;2.67;;;;;;;3.34;100.00;94321.06;4879156;29;20080;-82
2022/11/22 01:16:49;;;;;;;6.47;2.70;;;;;;;3.43;100.00;94319.31;4871759;29;20043;-83
2022/11/22 01:19:15;;;;;;;10.83;2.90;;;;;;;3.37;100.00;94327.75;4884464;28;20074;-83
2022/11/22 01:21:41;;;;;;;9.67;2.60;;;;;;;3.34;100.00;94330.66;4901186;28;20035;-83
2022/11/22 01:24:07;;;;;;;5.03;2.50;;;;;;;3.31;100.00;94336.97;4871366;28;20034;-83
2022/11/22 01:26:33;;;;;;;6.30;2.77;;;;;;;3.36;100.00;94347.72;4865022;29;20054;-83
2022/11/22 01:28:58;;;;;;;6.57;3.03;;;;;;;3.40;100.00;94351.63;4829584;28;20098;-83
2022/11/22 01:31:24;;;;;;;7.00;3.00;;;;;;;3.36;100.00;94345.13;4826417;29;20304;-82
2022/11/22 01:33:50;;;;;;;4.93;2.80;;;;;;;3.42;100.00;94348.84;4828866;29;20079;-81
2022/11/22 01:36:15;;;;;;;7.50;3.20;;;;;;;3.44;100.00;94341.72;4825398;28;20039;-83
2022/11/22 01:38:41;;;;;;;6.77;3.17;;;;;;;3.45;100.00;94338.94;4841805;29;20032;-83
2022/11/22 01:41:07;;;;;;;7.30;3.07;;;;;;;3.46;100.00;94343.19;4808106;28;22095;-83
2022/11/22 01:43:33;;;;;;;8.87;3.50;;;;;;;3.45;100.00;94338.94;4839267;29;20098;-84
2022/11/22 01:46:25;;;;;;;6.43;3.57;;;;;;;3.44;100.00;94341.72;4840831;28;20090;-83
2022/11/22 01:49:10;;;;;;;7.60;3.00;;;;;;;3.46;100.00;94347.56;4860305;29;20041;-83
2022/11/22 01:51:43;;;;;;;7.97;3.13;;;;;;;3.44;100.00;94347.72;4869465;29;20115;-83
2022/11/22 01:54:17;;;;;;;6.27;1.97;;;;;;;3.49;100.00;94350.66;4881897;28;20102;-84
2022/11/22 01:56:47;;;;;;;6.70;3.20;;;;;;;3.48;100.00;94349.00;4888539;29;20063;-83
2022/11/22 01:59:18;;;;;;;6.00;2.60;;;;;;;3.52;100.00;94350.31;4949813;28;20134;-84
2022/11/22 02:01:44;;;;;;;5.50;2.97;;;;;;;3.54;100.00;94345.75;4917577;29;20113;-83
2022/11/22 02:04:14;;;;;;;6.50;2.80;;;;;;;3.56;100.00;94340.41;4934079;28;20035;-84
2022/11/22 02:07:12;;;;;;;6.03;2.53;;;;;;;3.62;100.00;94339.78;4947695;28;20243;-84
2022/11/22 02:09:39;;;;;;;6.33;2.90;;;;;;;3.65;100.00;94347.22;4892486;29;20043;-83
2022/11/22 02:12:07;;;;;;;5.73;2.83;;;;;;;3.63;100.00;94348.38;4918010;29;20031;-84
2022/11/22 02:14:33;;;;;;;5.37;2.80;;;;;;;3.64;100.00;94350.00;4914995;29;20046;-83
2022/11/22 02:16:59;;;;;;;6.50;3.00;;;;;;;3.65;100.00;94354.22;4918246;29;20037;-83
2022/11/22 02:19:46;;;;;;;7.43;2.80;;;;;;;3.69;100.00;94355.50;4917762;29;20131;-83
2022/11/22 02:22:34;;;;;;;5.73;2.87;;;;;;;3.68;100.00;94357.28;4933457;28;20114;-84
2022/11/22 02:25:21;;;;;;;5.17;2.00;;;;;;;3.68;100.00;94353.88;4936970;28;20042;-84
2022/11/22 02:27:49;;;;;;;6.93;2.47;;;;;;;3.70;100.00;94357.16;4932944;29;20051;-84
2022/11/22 02:30:15;;;;;;;6.67;2.63;;;;;;;3.75;100.00;94360.06;4922167;28;20039;-84
2022/11/22 02:32:50;;;;;;;7.10;2.90;;;;;;;3.85;100.00;94365.91;4941041;29;20054;-82
2022/11/22 02:35:17;;;;;;;6.73;2.50;;;;;;;3.89;100.00;94377.63;4918234;28;20174;-84
2022/11/22 02:37:43;;;;;;;3.43;1.70;;;;;;;3.91;100.00;94380.84;4918768;29;20032;-84
2022/11/22 02:40:13;;;;;;;10.50;2.80;;;;;;;3.96;100.00;94388.19;4933396;29;20113;-84
2022/11/22 02:42:49;;;;;;;4.10;1.50;;;;;;;3.97;100.00;94388.00;4917168;29;20035;-84
2022/11/22 02:45:15;;;;;;;4.37;1.70;;;;;;;4.01;100.00;94389.28;4869585;28;20577;-84
2022/11/22 02:47:41;;;;;;;6.53;1.83;;;;;;;4.04;100.00;94398.56;4882712;29;20035;-83
2022/11/22 02:50:07;;;;;;;3.20;1.73;;;;;;;4.06;100.00;94385.38;4899882;28;20037;-83
2022/11/22 02:52:32;;;;;;;7.90;1.53;;;;;;;4.03;100.00;94388.34;4882253;29;20039;-83
2022/11/22 02:54:58;;;;;;;6.23;2.10;;;;;;;4.04;100.00;94387.34;4885178;28;20035;-83
2022/11/22 02:57:24;;;;;;;3.80;1.70;;;;;;;3.98;100.00;94387.00;4881561;29;20047;-82
2022/11/22 02:59:49;;;;;;;5.93;2.07;;;;;;;4.03;100.00;94391.75;4883833;29;20722;-83
2022/11/22 03:02:15;;;;;;;5.43;2.00;;;;;;;4.08;100.00;94397.25;4870502;28;20042;-84
2022/11/22 03:04:41;;;;;;;5.93;2.10;;;;;;;4.07;100.00;94387.03;4886498;29;20039;-82
2022/11/22 03:07:09;;;;;;;6.20;2.10;;;;;;;4.06;100.00;94378.41;4884762;28;20035;-83
2022/11/22 03:09:44;;;;;;;5.80;1.50;;;;;;;4.11;100.00;94399.53;4883884;29;20039;-84
2022/11/22 03:12:12;;;;;;;5.23;1.70;;;;;;;4.09;100.00;94398.06;4885028;28;20040;-83
2022/11/22 03:14:38;;;;;;;5.73;1.77;;;;;;;4.10;100.00;94410.09;4921663;29;20058;-83
2022/11/22 03:17:03;;;;;;;8.97;2.17;;;;;;;4.12;100.00;94402.94;4934807;28;20059;-83
2022/11/22 03:19:29;;;;;;;7.70;1.70;;;;;;;4.14;100.00;94399.19;4921841;29;20027;-84
2022/11/22 03:21:55;;;;;;;6.13;1.97;;;;;;;4.16;100.00;94396.44;4938028;28;20039;-83
2022/11/22 03:24:25;;;;;;;4.63;1.73;;;;;;;4.18;100.00;94402.28;4919244;29;20560;-84
2022/11/22 03:26:53;;;;;;;5.57;1.73;;;;;;;4.15;100.00;94407.81;4953538;28;20129;-84
2022/11/22 03:29:19;;;;;;;6.83;1.50;;;;;;;4.22;100.00;94406.16;4923246;28;20094;-84
2022/11/22 03:32:02;;;;;;;6.00;1.73;;;;;;;4.22;100.00;94413.97;4923358;29;20118;-83
2022/11/22 03:34:27;;;;;;;3.40;1.67;;;;;;;4.22;100.00;94409.56;4938433;29;20066;-83
2022/11/22 03:36:53;;;;;;;4.40;1.57;;;;;;;4.21;100.00;94409.75;4922795;29;20042;-83
2022/11/22 03:39:19;;;;;;;5.97;1.70;;;;;;;4.29;100.00;94403.72;4938499;29;20038;-83
2022/11/22 03:41:47;;;;;;;4.90;1.77;;;;;;;4.32;100.00;94413.78;4938267;29;20510;-83
2022/11/22 03:44:12;;;;;;;7.77;1.67;;;;;;;4.30;100.00;94408.78;4899019;28;20043;-83
2022/11/22 03:46:38;;;;;;;8.20;1.70;;;;;;;4.32;100.00;94411.19;4886822;29;20035;-83
2022/11/22 03:49:04;;;;;;;3.93;1.20;;;;;;;4.42;100.00;94423.03;4871405;28;20035;-84
2022/11/22 03:51:30;;;;;;;2.30;1.10;;;;;;;4.41;100.00;94413.63;4887838;29;20046;-84
2022/11/22 03:53:56;;;;;;;4.33;1.40;;;;;;;4.45;100.00;94407.09;4887915;29;20035;-83
2022/11/22 03:56:22;;;;;;;5.90;1.87;;;;;;;4.41;100.00;94412.81;4887503;29;20039;-84
2022/11/22 03:58:47;;;;;;;8.93;1.60;;;;;;;4.43;100.00;94421.28;4888156;29;20046;-83
2022/11/22 04:01:13;;;;;;;4.53;1.40;;;;;;;4.37;100.00;94417.53;4884782;28;20051;-83
2022/11/22 04:03:39;;;;;;;5.50;1.53;;;;;;;4.29;100.00;94422.75;4902230;28;20043;-83
2022/11/22 04:06:05;;;;;;;5.03;1.50;;;;;;;4.23;100.00;94428.63;4877313;28;20032;-83
2022/11/22 04:08:30;;;;;;;5.10;1.87;;;;;;;4.21;100.00;94427.97;4879310;29;20062;-83
2022/11/22 04:10:56;;;;;;;3.30;1.30;;;;;;;4.20;100.00;94415.94;4901091;29;20043;-83
2022/11/22 04:15:05;;;;;;;5.37;1.47;;;;;;;4.18;100.00;94415.28;4899482;29;20035;-82
2022/11/22 04:16:07;;;;;;;3.37;1.57;;;;;;;4.16;100.00;94414.66;4946695;28;20039;-84
2022/11/22 04:18:33;;;;;;;5.67;1.63;;;;;;;4.09;100.00;94414.50;4923733;29;20774;-84
2022/11/22 04:25:12;;;;;;;6.53;1.80;;;;;;;4.09;100.00;94413.66;4951061;28;20527;-82
2022/11/22 04:26:34;;;;;;;9.43;5.27;;;;;;;4.12;100.00;94410.72;4932249;29;20039;-83
2022/11/22 04:28:59;;;;;;;6.77;3.10;;;;;;;4.09;100.00;94424.06;4936707;29;20049;-84
2022/11/22 04:34:09;;;;;;;4.20;1.60;;;;;;;4.05;100.00;94434.00;4936370;28;20378;-84
2022/11/22 04:36:36;;;;;;;2.20;1.13;;;;;;;4.01;100.00;94432.69;4920313;29;20116;-84
2022/11/22 04:39:02;;;;;;;10.60;1.70;;;;;;;3.96;100.00;94441.00;4938554;29;20043;-84
2022/11/22 04:41:28;;;;;;;5.17;1.63;;;;;;;3.93;100.00;94432.72;4919885;29;20039;-84
2022/11/22 04:46:38;;;;;;;3.53;1.80;;;;;;;3.87;100.00;94435.94;4904008;28;20041;-83
2022/11/22 04:49:03;;;;;;;5.50;1.40;;;;;;;3.84;100.00;94439.69;4900521;28;20555;-84
2022/11/22 04:54:22;;;;;;;6.97;1.90;;;;;;;3.75;100.00;94433.66;4902855;28;20201;-83
2022/11/22 04:56:49;;;;;;;3.50;1.90;;;;;;;3.70;100.00;94433.34;4869952;29;20182;-83
2022/11/22 04:59:15;;;;;;;11.90;6.53;;;;;;;3.71;100.00;94434.16;4872811;28;20040;-83
2022/11/22 05:01:41;;;;;;;10.53;4.67;;;;;;;3.72;100.00;94438.38;4882747;29;20513;-84
2022/11/22 05:04:06;;;;;;;7.27;3.43;;;;;;;3.70;100.00;94441.13;4902987;28;20031;-83
2022/11/22 05:06:32;;;;;;;8.27;2.23;;;;;;;3.74;100.00;94441.63;4883603;29;20070;-83
2022/11/22 05:08:58;;;;;;;6.03;2.23;;;;;;;3.78;100.00;94445.53;4880204;28;21242;-83
2022/11/22 05:11:24;;;;;;;6.97;2.57;;;;;;;3.77;100.00;94451.72;4882335;29;21177;-83
2022/11/22 05:13:49;;;;;;;7.73;3.30;;;;;;;3.78;100.00;94458.53;4894719;29;20440;-83
2022/11/22 05:16:15;;;;;;;6.97;2.60;;;;;;;3.78;100.00;94456.72;4874154;28;20433;-84
2022/11/22 05:18:41;;;;;;;5.83;2.40;;;;;;;3.73;100.00;94455.59;4881110;29;20027;-83
2022/11/22 05:21:09;;;;;;;6.20;3.03;;;;;;;3.69;100.00;94456.88;4871068;28;20027;-83
2022/11/22 05:23:53;;;;;;;7.47;2.90;;;;;;;3.64;100.00;94461.75;4868287;29;20050;-84
2022/11/22 05:26:31;;;;;;;5.00;2.80;;;;;;;3.61;100.00;94460.28;4887010;28;20153;-83
2022/11/22 05:28:58;;;;;;;6.20;3.20;;;;;;;3.54;100.00;94461.91;4869346;29;20045;-83
2022/11/22 05:31:26;;;;;;;5.70;2.90;;;;;;;3.46;100.00;94460.13;4867408;29;20038;-83
2022/11/22 05:33:56;;;;;;;5.73;2.67;;;;;;;3.40;100.00;94455.56;4884673;29;20038;-83
2022/11/22 05:36:22;;;;;;;5.73;2.33;;;;;;;3.38;100.00;94461.88;4897302;28;20036;-84
2022/11/22 05:38:49;;;;;;;16.90;9.93;;;;;;;3.33;100.00;94470.16;4880706;28;22286;-85
2022/11/22 05:41:16;;;;;;;11.67;5.57;;;;;;;3.25;100.00;94464.91;4825846;28;20047;-83
2022/11/22 05:43:42;;;;;;;6.70;3.90;;;;;;;3.25;100.00;94459.72;4840251;29;20039;-84
2022/11/22 05:46:13;;;;;;;7.00;3.30;;;;;;;3.18;100.00;94467.31;4887652;28;20042;-84
2022/11/22 05:48:41;;;;;;;8.30;3.20;;;;;;;3.13;100.00;94481.78;4887112;29;20146;-83
2022/11/22 05:51:10;;;;;;;6.40;3.50;;;;;;;3.13;100.00;94476.56;4905389;28;20047;-85
2022/11/22 05:53:36;;;;;;;7.50;3.10;;;;;;;3.11;100.00;94473.31;4883782;29;20496;-83
2022/11/22 05:56:16;;;;;;;8.50;3.60;;;;;;;3.13;100.00;94481.78;4902551;29;20074;-85
2022/11/22 05:58:45;;;;;;;9.37;3.83;;;;;;;3.10;100.00;94479.47;4908971;28;20139;-84
2022/11/22 06:01:16;;;;;;;9.23;4.00;;;;;;;3.04;100.00;94493.91;4888342;28;20030;-84
2022/11/22 06:03:42;;;;;;;7.33;3.70;;;;;;;3.00;100.00;94490.81;4869736;28;20473;-80
2022/11/22 06:06:09;;;;;;;7.77;3.50;;;;;;;2.93;100.00;94492.41;4895637;28;21175;-84
2022/11/22 06:08:37;;;;;;;6.17;3.43;;;;;;;2.92;100.00;94495.97;4907922;28;20122;-84
2022/11/22 06:11:08;;;;;;;8.23;4.23;;;;;;;2.91;100.00;94496.91;4916965;28;20481;-84
2022/11/22 06:13:38;;;;;;;8.60;3.93;;;;;;;2.93;100.00;94515.75;4918339;29;20035;-84
2022/11/22 06:16:06;;;;;;;6.77;3.57;;;;;;;2.92;100.00;94513.31;4892092;28;20088;-84
2022/11/22 06:18:32;;;;;;;8.87;3.83;;;;;;;2.89;100.00;94514.44;4881672;29;20082;-84
2022/11/22 06:21:00;;;;;;;7.30;4.77;;;;;;;2.87;100.00;94524.16;4868745;29;20035;-84
2022/11/22 06:23:26;;;;;;;8.90;5.90;;;;;;;2.85;100.00;94518.34;4884332;29;20043;-84
2022/11/22 06:26:00;;;;;;;9.33;6.00;;;;;;;2.90;100.00;94520.47;4864322;29;20082;-84
2022/11/22 06:28:28;;;;;;;;;;;;;;;2.86;100.00;94513.94;4876283;29;20036;-84
2022/11/22 06:31:00;;;;;;;8.97;4.60;;;;;;;2.88;100.00;94514.59;4881021;29;20925;-84
2022/11/22 06:33:25;;;;;;;8.47;4.10;;;;;;;2.89;100.00;94518.84;4874112;29;20919;-84
2022/11/22 06:35:51;;;;;;;8.57;3.30;;;;;;;2.92;100.00;94505.53;4887687;29;20039;-85
2022/11/22 06:38:17;;;;;;;8.47;3.50;;;;;;;2.94;100.00;94514.78;4872309;29;20027;-86
2022/11/22 06:40:42;;;;;;;17.67;8.67;;;;;;;2.93;100.00;94526.16;4883474;29;21234;-85
2022/11/22 06:43:08;;;;;;;15.43;8.73;;;;;;;2.97;100.00;94534.44;4885443;28;20035;-85
2022/11/22 06:45:34;;;;;;;14.10;6.73;;;;;;;2.98;100.00;94526.47;4914991;29;20450;-85
2022/11/22 06:48:00;;;;;;;7.77;3.73;;;;;;;2.96;100.00;94541.44;4934790;28;20039;-86
2022/11/22 06:50:29;;;;;;;6.90;3.27;;;;;;;3.14;100.00;94541.34;4936606;29;20089;-91
2022/11/22 06:53:06;;;;;;;11.37;3.93;;;;;;;3.11;100.00;94548.63;4936805;29;20757;-89
2022/11/22 06:55:51;;;;;;;10.57;3.03;;;;;;;3.15;100.00;94549.94;4934766;29;20035;-86
2022/11/22 06:58:16;;;;;;;7.97;2.83;;;;;;;3.19;100.00;94552.09;4930487;28;20039;-86
2022/11/22 07:00:42;;;;;;;8.83;3.20;;;;;;;3.20;100.00;94560.69;4929851;29;20050;-86
2022/11/22 07:03:10;;;;;;;11.07;3.20;;;;;;;3.24;100.00;94565.41;4929075;28;20042;-85
2022/11/22 07:05:35;;;;;;;8.30;2.87;;;;;;;3.32;100.00;94562.06;4928293;29;20143;-85
2022/11/22 07:08:01;;;;;;;8.17;2.83;;;;;;;3.29;100.00;94570.97;4913428;29;20295;-85
2022/11/22 07:10:27;;;;;;;14.53;3.43;;;;;;;3.33;100.00;94574.06;4946132;28;20114;-85
2022/11/22 07:12:52;;;;;;;6.77;3.10;;;;;;;3.33;100.00;94578.47;4933972;29;20043;-86
2022/11/22 07:15:18;;;;;;;12.47;3.80;;;;;;;3.33;100.00;94574.06;4936105;28;20043;-85
2022/11/22 07:17:44;;;;;;;17.30;8.23;;;;;;;3.65;100.00;94593.34;4922891;29;20047;-86
2022/11/22 07:20:10;;;;;;;170.10;113.53;;;;;;;3.98;100.00;94595.06;4936371;28;20027;-87
2022/11/22 07:22:35;;;;;;;68.90;43.30;;;;;;;4.45;100.00;94586.69;4944017;28;20042;-90
2022/11/22 07:25:01;;;;;;;110.53;69.87;;;;;;;4.84;100.00;94590.44;4943944;28;20027;-88
2022/11/22 07:27:35;;;;;;;27.47;12.93;;;;;;;5.21;100.00;94597.72;4956054;29;20042;-89
2022/11/22 07:30:00;;;;;;;91.00;12.73;;;;;;;5.49;100.00;94603.31;4933798;28;20130;-88
2022/11/22 07:32:26;;;;;;;155.43;19.13;;;;;;;5.49;100.00;94610.34;4953160;28;20058;-85
2022/11/22 07:34:52;;;;;;;156.43;18.23;;;;;;;5.75;100.00;94610.09;4939820;29;20048;-86
2022/11/22 07:37:17;;;;;;;156.43;22.30;;;;;;;6.20;100.00;94625.03;4939086;28;20432;-87
2022/11/22 07:40:02;;;;;;;166.70;22.83;;;;;;;6.66;100.00;94621.66;4924137;29;20067;-88
2022/11/22 07:42:30;;;;;;;136.17;19.90;;;;;;;6.61;100.00;94616.97;4936764;29;20031;-89
2022/11/22 07:44:55;;;;;;;142.07;25.23;;;;;;;6.82;100.00;94624.97;4940656;29;20047;-92
2022/11/22 07:47:22;;;;;;;195.70;26.47;;;;;;;6.53;100.00;94622.25;4966537;28;20026;-91
2022/11/22 07:49:51;;;;;;;62.93;8.30;;;;;;;6.48;100.00;94621.97;4947810;29;20043;-86
2022/11/22 07:52:16;;;;;;;190.40;22.43;;;;;;;6.74;100.00;94622.44;4931587;29;20126;-90
2022/11/22 07:54:42;;;;;;;188.13;21.27;;;;;;;6.84;100.00;94630.00;4964808;28;20119;-89
2022/11/22 07:57:11;;;;;;;298.07;33.97;;;;;;;7.25;100.00;94627.06;4955449;28;20919;-88
2022/11/22 07:59:44;;;;;;;151.83;19.83;;;;;;;7.23;100.00;94627.22;4922368;29;20178;-92
2022/11/22 08:02:18;;;;;;;229.40;25.93;;;;;;;7.52;100.00;94628.25;4931172;29;20039;-91
2022/11/22 08:04:50;;;;;;;225.93;26.73;;;;;;;7.53;100.00;94635.09;4951009;28;20031;-91
2022/11/22 08:07:16;;;;;;;346.07;36.27;;;;;;;7.33;100.00;94633.00;4939396;29;20039;-91
2022/11/22 08:09:42;;;;;;;285.70;32.03;;;;;;;7.16;100.00;94625.50;4937489;29;20043;-83
2022/11/22 08:12:08;;;;;;;75.97;7.73;;;;;;;6.84;100.00;94628.22;4938731;29;20047;-90
2022/11/22 08:14:36;;;;;;;250.07;26.60;;;;;;;7.03;100.00;94620.88;4937249;29;20031;-88
2022/11/22 08:17:01;;;;;;;237.83;31.10;;;;;;;7.06;100.00;94626.56;4927346;28;20089;-88
2022/11/22 08:19:29;;;;;;;254.80;32.40;;;;;;;6.91;100.00;94628.34;4943277;28;20039;-89
2022/11/22 08:22:01;;;;;;;530.83;61.23;;;;;;;6.99;100.00;94628.25;4942350;29;20445;-88
2022/11/22 08:24:29;;;;;;;766.90;97.77;;;;;;;7.27;100.00;94628.47;4934521;28;20023;-89
2022/11/22 08:26:55;;;;;;;595.50;72.13;;;;;;;7.40;100.00;94627.06;4942300;29;20035;-89
2022/11/22 08:29:21;;;;;;;1725.10;239.63;;;;;;;7.88;100.00;94632.75;4934880;29;20127;-88
2022/11/22 08:31:47;;;;;;;558.33;68.53;;;;;;;7.75;100.00;94621.13;4906956;29;20481;-88
2022/11/22 08:34:13;;;;;;;350.17;38.33;;;;;;;7.78;100.00;94626.00;4946522;29;20039;-88
2022/11/22 08:36:41;;;;;;;652.07;75.30;;;;;;;7.90;100.00;94617.69;4945923;29;20027;-88
2022/11/22 08:39:07;;;;;;;915.93;114.80;;;;;;;8.03;100.00;94608.19;4936361;29;20031;-88
2022/11/22 08:41:33;;;;;;;594.87;74.87;;;;;;;8.04;100.00;94609.81;4932988;29;20046;-90
2022/11/22 08:44:06;;;;;;;396.83;42.87;;;;;;;7.90;100.00;94602.78;4940750;28;20050;-89
2022/11/22 08:46:32;;;;;;;1110.47;143.53;;;;;;;7.98;100.00;94599.25;4950184;28;20517;-90
2022/11/22 08:49:05;;;;;;;1152.83;166.67;;;;;;;8.10;100.00;94597.78;4943441;29;20031;-91
2022/11/22 08:51:33;;;;;;;823.72;106.10;;;;;;;7.87;100.00;94591.88;4938706;28;20035;-85
2022/11/22 08:54:08;;;;;;;1705.23;230.23;;;;;;;7.79;100.00;94591.00;4945639;28;20071;-93
2022/11/22 08:56:34;;;;;;;525.73;54.73;;;;;;;7.32;100.00;94600.00;4954833;29;20133;-93
2022/11/22 08:59:00;;;;;;;499.80;54.17;;;;;;;6.69;100.00;94603.84;4926593;29;20070;-93
2022/11/22 09:01:26;;;;;;;663.17;82.63;;;;;;;7.03;100.00;94610.41;4941903;29;20166;-91
2022/11/22 09:03:52;;;;;;;346.27;33.63;;;;;;;7.06;100.00;94610.88;4948141;28;20075;-92
2022/11/22 09:06:30;;;;;;;935.97;118.37;;;;;;;7.05;100.00;94611.88;4940567;28;20201;-94
2022/11/22 09:08:56;;;;;;;305.20;34.17;;;;;;;6.99;100.00;94603.94;4926533;29;20122;-92
2022/11/22 09:11:22;;;;;;;111.23;18.40;;;;;;;7.02;100.00;94603.56;4926218;29;20093;-94
2022/11/22 09:13:50;;;;;;;226.83;96.47;;;;;;;7.21;100.00;94600.47;4940356;29;20039;-88
2022/11/22 09:16:18;;;;;;;240.37;74.00;;;;;;;7.56;100.00;94601.56;4944563;29;20493;-94
2022/11/22 09:18:59;;;;;;;40.73;12.13;;;;;;;7.31;100.00;94603.63;4932668;28;20049;-93
2022/11/22 09:21:29;;;;;;;43.43;18.77;;;;;;;7.18;100.00;94606.03;4934071;29;20038;-93
2022/11/22 09:23:56;;;;;;;106.43;60.83;;;;;;;7.57;100.00;94607.59;4949018;29;20039;-91
2022/11/22 09:26:24;;;;;;;42.40;20.90;;;;;;;7.37;100.00;94614.34;4934003;28;20088;-88
2022/11/22 09:28:54;;;;;;;23.87;12.17;;;;;;;7.14;100.00;94619.63;4926796;29;20031;-91
2022/11/22 09:31:23;;;;;;;40.87;18.80;;;;;;;7.35;100.00;94629.44;4932238;28;20067;-90
2022/11/22 09:33:49;;;;;;;109.73;69.63;;;;;;;7.48;100.00;94624.38;4936251;29;20047;-91
2022/11/22 09:36:25;;;;;;;31.33;18.07;;;;;;;7.48;100.00;94630.44;4930613;29;20039;-87
2022/11/22 09:38:51;;;;;;;368.73;40.43;;;;;;;7.52;100.00;94636.91;4935237;29;20036;-93
2022/11/22 09:41:29;;;;;;;76.63;8.70;;;;;;;7.21;100.00;94636.22;4963185;28;20038;-94
2022/11/22 09:44:20;;;;;;;688.03;76.30;;;;;;;7.36;100.00;94634.47;4946675;28;20102;-94
2022/11/22 09:50:22;;;;;;;40.40;6.47;;;;;;;7.50;100.00;94643.31;4949480;28;20038;-93
2022/11/22 09:53:11;;;;;;;271.97;28.60;;;;;;;7.55;100.00;94648.84;4917840;29;20043;-94
2022/11/22 09:55:42;;;;;;;869.73;110.63;;;;;;;7.78;100.00;94651.38;4943895;29;20039;-94
2022/11/22 09:58:35;;;;;;;1185.80;144.50;;;;;;;7.89;100.00;94658.75;4943818;29;20046;-94
2022/11/22 10:04:42;;;;;;;74.07;11.03;;;;;;;7.36;100.00;94659.81;4962228;28;20047;-94
2022/11/22 10:07:16;;;;;;;128.03;36.93;;;;;;;6.89;100.00;94666.09;4960083;28;20039;-93
2022/11/22 10:10:04;;;;;;;631.23;84.33;;;;;;;7.60;100.00;94674.44;4932168;29;20035;-90
2022/11/22 10:12:47;;;;;;;141.20;16.67;;;;;;;7.63;100.00;94677.50;4941475;29;20043;-94
2022/11/22 10:15:36;;;;;;;597.00;78.30;;;;;;;8.09;100.00;94674.72;4941666;29;20038;-92
2022/11/22 10:18:53;;;;;;;261.17;26.67;;;;;;;7.79;100.00;94673.91;4944208;29;20074;-94
2022/11/22 10:21:33;;;;;;;83.10;10.83;;;;;;;7.36;100.00;94667.66;4918889;29;20043;-93
2022/11/22 10:24:32;;;;;;;103.83;14.70;;;;;;;7.45;100.00;94671.81;4925915;29;20501;-93
2022/11/22 10:31:16;;;;;;;253.90;25.80;;;;;;;8.00;100.00;94673.19;4961300;28;20053;-94
2022/11/22 10:33:59;;;;;;;96.27;46.93;;;;;;;7.40;100.00;94679.38;4923865;29;20039;-90
2022/11/22 10:36:31;;;;;;;122.77;22.70;;;;;;;7.74;100.00;94681.47;4950683;29;20039;-85
2022/11/22 10:39:23;;;;;;;71.33;17.10;;;;;;;7.71;100.00;94687.06;4941556;29;20817;-88
2022/11/22 10:42:04;;;;;;;36.00;6.53;;;;;;;7.29;100.00;94684.03;4935013;29;20139;-86
2022/11/22 10:44:55;;;;;;;19.50;4.13;;;;;;;7.03;100.00;94684.41;4949341;28;20065;-87
2022/11/22 10:48:01;;;;;;;10.40;2.10;;;;;;;6.91;100.00;94683.22;4930087;28;20445;-94
2022/11/22 10:51:16;;;;;;;32.23;4.27;;;;;;;7.31;100.00;94692.53;4951964;29;20022;-94
2022/11/22 10:54:22;;;;;;;9.83;2.10;;;;;;;7.01;100.00;94693.44;4933461;29;20046;-93
2022/11/22 10:57:13;;;;;;;127.17;12.37;;;;;;;7.22;100.00;94693.59;4958227;28;20085;-95
2022/11/22 10:59:51;;;;;;;16.10;3.60;;;;;;;7.11;100.00;94691.41;4924683;29;20067;-89
2022/11/22 11:02:26;;;;;;;23.70;4.93;;;;;;;7.10;100.00;94692.38;4927375;28;20043;-92
2022/11/22 11:04:55;;;;;;;89.17;30.03;;;;;;;7.09;100.00;94690.75;4924577;29;20040;-88
2022/11/22 11:10:36;;;;;;;30.10;5.77;;;;;;;7.42;100.00;94696.53;4950035;29;20033;-91
2022/11/22 11:13:13;;;;;;;18.77;3.50;;;;;;;7.43;100.00;94687.69;4939320;28;20035;-90
2022/11/22 11:15:47;;;;;;;22.23;3.97;;;;;;;7.70;100.00;94688.88;4929118;28;20035;-95
2022/11/22 11:18:59;;;;;;;24.57;4.30;;;;;;;7.51;100.00;94681.53;4963237;28;20034;-93
2022/11/22 11:21:28;;;;;;;40.43;5.57;;;;;;;7.95;100.00;94686.84;4904290;29;20379;-90
2022/11/22 11:24:14;;;;;;;9.93;2.37;;;;;;;7.71;100.00;94681.84;4947146;28;20038;-93
2022/11/22 11:26:43;;;;;;;33.13;3.27;;;;;;;7.31;100.00;94670.81;4938066;28;20024;-95
2022/11/22 11:29:27;;;;;;;7.77;2.10;;;;;;;7.36;100.00;94673.69;4957819;28;20552;-91
2022/11/22 11:32:10;;;;;;;37.40;5.37;;;;;;;7.98;100.00;94670.75;4938172;29;20035;-92
2022/11/22 11:34:39;;;;;;;32.20;4.22;;;;;;;7.80;100.00;94665.88;4946230;28;20061;-87
2022/11/22 11:37:18;;;;;;;8.03;2.50;;;;;;;7.70;100.00;94660.09;4940394;28;20050;-92
2022/11/22 11:39:50;;;;;;;16.23;3.13;;;;;;;7.78;100.00;94662.66;4895241;29;20046;-91
2022/11/22 11:42:33;;;;;;;8.53;2.30;;;;;;;7.43;100.00;94652.88;4917994;29;20035;-89
2022/11/22 11:45:31;;;;;;;33.45;16.95;;;;;;;7.53;100.00;94648.19;4904552;29;21422;-90
2022/11/22 11:47:57;;;;;;;31.50;15.23;;;;;;;7.77;100.00;94655.75;4872660;29;20078;-90
2022/11/22 11:50:29;;;;;;;28.70;15.47;;;;;;;7.60;100.00;94649.09;4900876;28;20154;-89
2022/11/22 11:53:05;;;;;;;25.17;10.63;;;;;;;7.20;100.00;94647.69;4885995;29;20031;-88
2022/11/22 11:55:38;;;;;;;11.07;4.10;;;;;;;7.30;100.00;94643.00;4890679;29;21042;-90
2022/11/22 11:58:22;;;;;;;11.43;4.25;;;;;;;7.28;100.00;94645.81;4899164;28;20042;-89
2022/11/22 12:00:49;;;;;;;8.93;2.77;;;;;;;7.29;100.00;94642.22;4905524;29;20106;-89
2022/11/22 12:03:19;;;;;;;9.70;2.60;;;;;;;7.43;100.00;94643.22;4920189;28;20097;-89
2022/11/22 12:06:16;;;;;;;14.67;4.07;;;;;;;7.92;100.00;94634.03;4937842;29;20118;-93
2022/11/22 12:08:57;;;;;;;16.57;2.77;;;;;;;7.19;100.00;94612.88;4929128;29;20501;-89